Time;durP1;ratioP1;P1;durP2;ratioP2;P2;SDS_P1;SDS_P2;PMS_P1;PMS_P2;Temp;Humidity;BMP_temperature;BMP_pressure;BME280_temperature;BME280_humidity;BME280_pressure;Samples;Min_cycle;Max_cycle;Signal;HPM_P1;HPM_P2
2023/11/09 00:00:49;;;;;;;124.75;117.88;;;;;;;10.30;100.00;101359.66;5007937;28;20069;-75
2023/11/09 00:03:16;;;;;;;104.22;98.43;;;;;;;9.15;100.00;101368.13;5009659;28;20049;-75
2023/11/09 00:05:44;;;;;;;42.50;39.90;;;;;;;10.01;100.00;101371.94;5016407;28;20053;-75
2023/11/09 00:08:11;;;;;;;46.22;43.65;;;;;;;8.96;100.00;101372.13;5021509;28;20049;-75
2023/11/09 00:10:38;;;;;;;38.50;35.90;;;;;;;9.18;100.00;101379.19;5014062;28;20056;-75
2023/11/09 00:13:05;;;;;;;37.80;35.50;;;;;;;9.00;100.00;101386.66;5018885;28;20057;-75
2023/11/09 00:15:32;;;;;;;110.53;104.47;;;;;;;9.31;100.00;101375.91;5014529;28;20059;-75
2023/11/09 00:18:01;;;;;;;103.90;98.15;;;;;;;9.72;100.00;101395.88;5014908;28;20041;-75
2023/11/09 00:20:27;;;;;;;103.97;98.30;;;;;;;8.17;100.00;101388.22;5018679;28;20049;-75
2023/11/09 00:22:57;;;;;;;108.45;102.60;;;;;;;9.11;100.00;101391.53;5014626;28;20055;-75
2023/11/09 00:25:24;;;;;;;125.40;118.35;;;;;;;8.21;100.00;101400.09;5013875;28;20046;-75
2023/11/09 00:27:51;;;;;;;111.95;105.72;;;;;;;8.31;100.00;101396.41;5019750;28;20494;-75
2023/11/09 00:30:18;;;;;;;34.15;31.77;;;;;;;8.89;100.00;101390.53;5014189;28;20057;-75
2023/11/09 00:32:45;;;;;;;29.10;27.08;;;;;;;9.09;100.00;101385.56;5022269;28;20053;-75
2023/11/09 00:35:14;;;;;;;35.05;32.65;;;;;;;10.50;100.00;101392.56;5017937;28;20054;-75
2023/11/09 00:37:43;;;;;;;30.55;28.10;;;;;;;8.61;100.00;101395.56;5011861;28;20046;-75
2023/11/09 00:40:12;;;;;;;33.00;30.90;;;;;;;9.00;100.00;101389.31;5014329;28;20412;-75
2023/11/09 00:42:38;;;;;;;39.75;37.28;;;;;;;9.49;100.00;101398.59;5022832;28;20057;-75
2023/11/09 00:45:07;;;;;;;106.03;100.15;;;;;;;9.05;100.00;101399.38;5013494;28;20538;-75
2023/11/09 00:47:33;;;;;;;149.95;141.75;;;;;;;10.24;100.00;101397.53;5010756;28;20121;-76
2023/11/09 00:50:00;;;;;;;150.48;142.38;;;;;;;9.94;100.00;101400.25;5009884;28;20058;-76
2023/11/09 00:52:29;;;;;;;145.63;137.55;;;;;;;9.04;100.00;101406.47;5009937;28;20535;-76
2023/11/09 00:54:56;;;;;;;120.05;113.45;;;;;;;8.69;100.00;101400.81;5012235;28;20507;-76
2023/11/09 00:57:23;;;;;;;84.38;79.45;;;;;;;9.36;100.00;101402.72;5021898;28;20049;-76
2023/11/09 00:59:50;;;;;;;95.57;90.03;;;;;;;8.47;100.00;101407.75;5015758;28;20058;-75
2023/11/09 01:02:17;;;;;;;38.65;36.25;;;;;;;8.35;100.00;101411.75;5019549;28;20046;-75
2023/11/09 01:04:44;;;;;;;38.47;36.03;;;;;;;8.47;100.00;101418.34;5010408;28;20437;-75
2023/11/09 01:07:11;;;;;;;37.45;34.90;;;;;;;8.17;100.00;101414.66;5014720;28;20041;-75
2023/11/09 01:09:39;;;;;;;33.13;30.92;;;;;;;8.62;100.00;101418.41;5017661;28;20053;-75
2023/11/09 01:12:08;;;;;;;37.38;35.08;;;;;;;8.14;100.00;101425.59;5017499;28;20089;-75
2023/11/09 01:14:35;;;;;;;33.20;31.10;;;;;;;7.89;100.00;101430.13;5018239;28;20084;-75
2023/11/09 01:17:02;;;;;;;32.42;30.30;;;;;;;7.94;100.00;101441.03;5012791;28;20060;-75
2023/11/09 01:19:29;;;;;;;37.65;35.15;;;;;;;8.91;100.00;101427.47;5024244;28;20046;-75
2023/11/09 01:21:55;;;;;;;45.80;43.08;;;;;;;7.93;100.00;101438.59;5017433;28;20060;-75
2023/11/09 01:24:22;;;;;;;39.05;36.65;;;;;;;8.10;100.00;101441.97;5014388;28;20053;-76
2023/11/09 01:26:51;;;;;;;40.60;38.03;;;;;;;7.42;100.00;101443.34;5021288;28;20084;-75
2023/11/09 01:29:18;;;;;;;31.02;28.92;;;;;;;8.46;100.00;101445.78;5017297;28;20502;-75
2023/11/09 01:31:45;;;;;;;39.65;37.15;;;;;;;8.43;100.00;101450.63;5012812;28;20319;-75
2023/11/09 01:34:12;;;;;;;42.55;39.47;;;;;;;7.85;100.00;101462.41;5018296;28;20431;-75
2023/11/09 01:36:39;;;;;;;33.40;31.20;;;;;;;8.83;100.00;101448.72;5014029;28;20050;-75
2023/11/09 01:39:06;;;;;;;34.58;32.28;;;;;;;8.47;100.00;101454.56;5015133;28;20499;-74
2023/11/09 01:41:33;;;;;;;34.90;32.70;;;;;;;8.19;100.00;101457.63;5014245;28;20146;-75
2023/11/09 01:44:02;;;;;;;37.30;35.00;;;;;;;8.32;100.00;101462.41;5021865;28;20163;-75
2023/11/09 01:46:29;;;;;;;31.90;30.00;;;;;;;8.53;100.00;101461.81;5022555;28;20050;-75
2023/11/09 01:48:57;;;;;;;31.15;29.10;;;;;;;8.18;100.00;101458.66;5014625;28;20054;-75
2023/11/09 01:51:25;;;;;;;32.53;30.52;;;;;;;7.92;100.00;101461.53;5017403;28;20054;-75
2023/11/09 01:53:54;;;;;;;33.45;31.35;;;;;;;7.76;100.00;101470.34;5015910;28;20060;-75
2023/11/09 01:56:22;;;;;;;37.42;35.13;;;;;;;7.67;100.00;101473.19;5013693;28;20046;-75
2023/11/09 01:58:50;;;;;;;33.83;31.58;;;;;;;8.20;100.00;101474.34;5015011;28;20056;-75
2023/11/09 02:01:21;;;;;;;37.10;34.80;;;;;;;8.71;100.00;101470.31;5016630;28;20038;-76
2023/11/09 02:03:48;;;;;;;36.75;34.55;;;;;;;9.11;100.00;101476.34;5015709;28;20629;-75
2023/11/09 02:06:18;;;;;;;40.38;37.97;;;;;;;8.38;100.00;101474.09;5012482;28;20083;-76
2023/11/09 02:08:47;;;;;;;39.47;36.70;;;;;;;7.60;100.00;101480.97;5010446;28;20140;-75
2023/11/09 02:11:14;;;;;;;42.08;39.47;;;;;;;7.48;100.00;101479.66;5011601;28;20053;-76
2023/11/09 02:13:41;;;;;;;35.45;33.35;;;;;;;7.85;100.00;101479.09;5018691;28;20152;-75
2023/11/09 02:16:08;;;;;;;44.42;41.72;;;;;;;7.40;100.00;101479.66;5023315;28;20061;-75
2023/11/09 02:18:37;;;;;;;41.90;39.30;;;;;;;7.45;100.00;101482.66;5015489;28;20516;-75
2023/11/09 02:21:05;;;;;;;39.47;36.88;;;;;;;7.28;100.00;101487.09;5022817;28;20503;-75
2023/11/09 02:23:34;;;;;;;33.28;31.08;;;;;;;7.54;100.00;101489.56;5011906;28;20436;-75
2023/11/09 02:26:03;;;;;;;33.95;31.75;;;;;;;7.69;100.00;101495.81;5015502;28;20053;-75
2023/11/09 02:28:32;;;;;;;33.75;31.65;;;;;;;7.70;100.00;101500.13;5014611;28;20152;-76
2023/11/09 02:30:59;;;;;;;40.67;38.17;;;;;;;7.36;100.00;101494.22;5021627;28;20525;-75
2023/11/09 02:33:26;;;;;;;44.42;41.63;;;;;;;7.65;100.00;101498.97;5007454;28;20515;-76
2023/11/09 02:35:53;;;;;;;32.13;30.23;;;;;;;7.80;100.00;101494.63;5019209;28;20049;-75
2023/11/09 02:38:20;;;;;;;38.67;36.38;;;;;;;7.56;100.00;101485.78;5024558;28;20136;-74
2023/11/09 02:40:47;;;;;;;38.15;35.83;;;;;;;7.42;100.00;101493.56;5013009;28;20511;-75
2023/11/09 02:43:15;;;;;;;37.40;35.20;;;;;;;7.70;100.00;101500.13;5014091;28;20050;-75
2023/11/09 02:45:42;;;;;;;39.10;36.70;;;;;;;8.38;100.00;101495.28;5013740;28;20049;-75
2023/11/09 02:48:09;;;;;;;38.67;36.38;;;;;;;8.03;100.00;101506.16;5018483;28;20049;-75
2023/11/09 02:50:36;;;;;;;32.22;30.13;;;;;;;7.86;100.00;101511.66;5013546;28;20050;-75
2023/11/09 02:53:03;;;;;;;33.25;31.15;;;;;;;7.66;100.00;101508.56;5017310;28;20045;-76
2023/11/09 02:55:30;;;;;;;36.30;34.10;;;;;;;7.74;100.00;101498.78;5016175;28;20584;-75
2023/11/09 02:57:57;;;;;;;34.00;31.80;;;;;;;7.62;100.00;101504.59;5017822;28;20049;-75
2023/11/09 03:00:28;;;;;;;32.67;30.50;;;;;;;7.90;100.00;101492.66;5011585;28;20052;-74
2023/11/09 03:02:57;;;;;;;37.55;35.35;;;;;;;7.91;100.00;101507.50;5024432;28;20060;-75
2023/11/09 03:05:26;;;;;;;42.33;40.03;;;;;;;7.89;100.00;101501.56;5020895;28;20499;-76
2023/11/09 03:07:54;;;;;;;41.28;38.97;;;;;;;7.32;100.00;101507.75;5025351;28;20073;-76
2023/11/09 03:10:21;;;;;;;37.38;35.25;;;;;;;7.59;100.00;101508.38;5018899;28;20084;-75
2023/11/09 03:12:48;;;;;;;39.67;37.47;;;;;;;7.67;100.00;101520.78;5025588;28;20072;-76
2023/11/09 03:15:16;;;;;;;38.10;35.70;;;;;;;7.44;100.00;101515.34;5017088;28;20057;-75
2023/11/09 03:17:45;;;;;;;36.70;34.60;;;;;;;7.14;100.00;101517.66;5017536;28;20069;-75
2023/11/09 03:20:12;;;;;;;37.33;35.42;;;;;;;7.26;100.00;101524.28;5023887;28;20053;-75
2023/11/09 03:22:40;;;;;;;36.95;35.15;;;;;;;7.13;100.00;101537.13;5021991;28;20049;-74
2023/11/09 03:25:08;;;;;;;40.88;38.58;;;;;;;6.92;100.00;101532.28;5024377;28;20057;-75
2023/11/09 03:27:35;;;;;;;40.00;37.90;;;;;;;6.94;100.00;101543.53;5011686;28;20458;-75
2023/11/09 03:30:02;;;;;;;37.60;35.40;;;;;;;6.87;100.00;101546.00;5015558;28;20054;-75
2023/11/09 03:32:29;;;;;;;36.28;34.17;;;;;;;6.71;100.00;101548.56;5014279;28;20553;-75
2023/11/09 03:34:57;;;;;;;33.00;31.15;;;;;;;6.83;100.00;101549.94;5021319;28;20054;-75
2023/11/09 03:37:27;;;;;;;32.10;30.20;;;;;;;6.69;100.00;101555.84;5015894;28;20057;-75
2023/11/09 03:39:57;;;;;;;32.38;30.48;;;;;;;6.58;100.00;101564.06;5014599;28;20491;-75
2023/11/09 03:42:24;;;;;;;31.77;29.90;;;;;;;6.51;100.00;101561.22;5015885;28;20052;-76
2023/11/09 03:44:51;;;;;;;28.80;27.00;;;;;;;6.35;100.00;101567.22;5018375;28;20057;-74
2023/11/09 03:47:18;;;;;;;32.95;30.75;;;;;;;6.47;100.00;101575.69;5013053;28;20045;-75
2023/11/09 03:49:45;;;;;;;35.13;32.92;;;;;;;6.38;100.00;101574.00;5017119;28;20049;-75
2023/11/09 03:52:13;;;;;;;32.58;30.38;;;;;;;6.36;100.00;101584.75;5015260;28;20045;-75
2023/11/09 03:54:40;;;;;;;38.35;36.15;;;;;;;6.33;100.00;101578.94;5015201;28;20057;-75
2023/11/09 03:57:07;;;;;;;32.58;30.38;;;;;;;6.26;100.00;101581.38;5014112;28;20467;-75
2023/11/09 03:59:34;;;;;;;33.28;30.63;;;;;;;6.20;100.00;101579.34;5017573;28;20601;-75
2023/11/09 04:02:01;;;;;;;56.30;53.10;;;;;;;6.19;100.00;101582.97;5011662;28;20050;-74
2023/11/09 04:04:28;;;;;;;50.17;47.17;;;;;;;6.09;100.00;101585.72;5020846;28;20054;-75
2023/11/09 04:06:58;;;;;;;55.70;52.30;;;;;;;5.94;100.00;101590.75;5010053;28;20057;-75
2023/11/09 04:09:29;;;;;;;65.88;61.97;;;;;;;5.87;100.00;101600.22;5001795;28;20412;-74
2023/11/09 04:11:56;;;;;;;55.28;51.90;;;;;;;5.77;100.00;101611.81;5016380;28;20049;-75
2023/11/09 04:14:23;;;;;;;47.25;44.35;;;;;;;5.88;100.00;101611.59;5010908;28;20272;-75
2023/11/09 04:16:50;;;;;;;65.10;61.10;;;;;;;5.07;100.00;101614.28;5010595;28;20438;-75
2023/11/09 04:19:19;;;;;;;26.92;24.92;;;;;;;4.79;100.00;101614.31;5014733;28;20053;-75
2023/11/09 04:21:47;;;;;;;29.10;27.00;;;;;;;5.30;100.00;101615.53;5010931;28;20057;-74
2023/11/09 04:24:14;;;;;;;32.05;29.75;;;;;;;5.46;100.00;101622.75;5003935;28;20528;-74
2023/11/09 04:26:42;;;;;;;30.65;28.55;;;;;;;5.36;100.00;101617.56;5012141;28;20434;-75
2023/11/09 04:29:10;;;;;;;31.98;29.77;;;;;;;5.25;100.00;101615.97;5011220;28;20195;-75
2023/11/09 04:31:41;;;;;;;34.05;31.85;;;;;;;5.48;100.00;101620.81;5019949;28;20076;-74
2023/11/09 04:34:09;;;;;;;31.02;28.92;;;;;;;5.50;100.00;101626.75;5003846;28;20962;-75
2023/11/09 04:36:42;;;;;;;28.65;26.55;;;;;;;5.47;100.00;101633.13;5010107;28;20424;-75
2023/11/09 04:39:10;;;;;;;28.40;26.50;;;;;;;5.32;100.00;101636.44;5011206;28;20137;-75
2023/11/09 04:41:37;;;;;;;26.63;24.73;;;;;;;4.87;100.00;101647.78;5020897;28;20415;-75
2023/11/09 04:44:11;;;;;;;26.17;24.38;;;;;;;4.56;100.00;101648.03;5011481;28;20050;-75
2023/11/09 04:46:40;;;;;;;26.10;24.30;;;;;;;4.63;100.00;101643.03;5010086;28;20054;-74
2023/11/09 04:49:08;;;;;;;26.58;24.67;;;;;;;4.49;100.00;101646.97;5024252;28;20053;-74
2023/11/09 04:51:35;;;;;;;26.60;24.80;;;;;;;4.39;100.00;101647.00;5015499;28;20108;-74
2023/11/09 04:54:07;;;;;;;24.63;23.02;;;;;;;4.66;100.00;101653.28;5019605;28;20045;-74
2023/11/09 04:56:52;;;;;;;23.42;21.73;;;;;;;4.67;100.00;101653.13;5022622;28;20049;-74
2023/11/09 05:07:35;;;;;;;18.95;17.75;;;;;;;4.86;100.00;101646.97;5013574;28;20057;-75
2023/11/09 05:10:03;;;;;;;22.83;20.95;;;;;;;4.83;100.00;101647.25;5028403;28;20057;-74
2023/11/09 05:12:30;;;;;;;21.13;19.73;;;;;;;4.81;100.00;101652.69;5028786;28;20045;-74
2023/11/09 05:15:00;;;;;;;20.77;19.40;;;;;;;4.87;100.00;101656.53;5018375;28;20045;-75
2023/11/09 05:17:29;;;;;;;21.65;20.27;;;;;;;4.89;100.00;101662.47;5011380;28;20065;-75
2023/11/09 05:19:57;;;;;;;20.60;19.30;;;;;;;5.13;100.00;101659.28;5024375;28;20434;-75
2023/11/09 05:22:28;;;;;;;19.80;18.55;;;;;;;4.95;100.00;101664.50;5028728;28;20064;-75
2023/11/09 05:24:55;;;;;;;20.25;18.95;;;;;;;4.96;100.00;101660.94;5014888;28;20127;-75
2023/11/09 05:27:22;;;;;;;21.65;20.25;;;;;;;5.61;100.00;101668.69;5012661;28;20050;-74
2023/11/09 05:29:49;;;;;;;21.50;20.20;;;;;;;5.63;100.00;101666.75;5011501;28;20069;-74
2023/11/09 05:32:17;;;;;;;22.50;21.10;;;;;;;5.70;100.00;101673.06;5010941;28;20121;-75
2023/11/09 05:34:44;;;;;;;23.23;21.83;;;;;;;5.90;100.00;101675.53;5007497;28;20443;-75
2023/11/09 05:37:11;;;;;;;23.60;22.10;;;;;;;6.10;100.00;101676.22;5025559;28;20053;-75
2023/11/09 05:39:38;;;;;;;23.30;21.90;;;;;;;6.01;100.00;101679.78;5014108;28;20057;-74
2023/11/09 05:42:07;;;;;;;24.45;22.65;;;;;;;6.04;100.00;101675.03;5015734;28;20046;-74
2023/11/09 05:44:34;;;;;;;26.00;24.50;;;;;;;6.13;100.00;101682.03;5010817;28;20089;-74
2023/11/09 05:47:00;;;;;;;23.33;21.83;;;;;;;6.35;100.00;101693.06;5013540;28;20054;-75
2023/11/09 05:49:29;;;;;;;24.67;23.08;;;;;;;6.83;100.00;101692.53;5022284;28;20042;-75
2023/11/09 05:51:56;;;;;;;23.98;22.58;;;;;;;7.16;100.00;101692.69;5024583;28;20513;-74
2023/11/09 05:54:24;;;;;;;24.48;22.98;;;;;;;7.43;100.00;101694.25;5015601;28;20042;-74
2023/11/09 05:56:51;;;;;;;26.10;24.40;;;;;;;7.70;100.00;101701.09;5022089;28;20057;-75
2023/11/09 05:59:18;;;;;;;27.08;25.30;;;;;;;7.80;100.00;101693.00;5018522;28;20527;-75
2023/11/09 06:01:46;;;;;;;29.55;27.20;;;;;;;8.24;100.00;101692.69;5012837;28;20058;-75
2023/11/09 06:04:13;;;;;;;27.77;25.88;;;;;;;8.43;100.00;101695.00;5010792;28;20145;-75
2023/11/09 06:06:43;;;;;;;29.63;27.83;;;;;;;8.74;100.00;101696.91;5015536;28;20081;-75
2023/11/09 06:09:10;;;;;;;29.17;27.20;;;;;;;8.65;100.00;101703.22;5010551;28;20133;-75
2023/11/09 06:11:37;;;;;;;26.63;25.13;;;;;;;8.68;100.00;101706.38;5025006;28;20103;-75
2023/11/09 06:14:04;;;;;;;30.40;28.50;;;;;;;8.99;100.00;101705.63;5014698;28;20486;-75
2023/11/09 06:16:31;;;;;;;27.08;25.38;;;;;;;9.49;100.00;101707.03;5019505;28;20060;-74
2023/11/09 06:18:58;;;;;;;25.40;23.80;;;;;;;9.65;100.00;101703.47;5026328;28;20061;-75
2023/11/09 06:21:28;;;;;;;27.15;25.55;;;;;;;9.72;100.00;101720.34;5025001;28;20045;-75
2023/11/09 06:23:57;;;;;;;27.10;25.25;;;;;;;9.69;100.00;101722.53;5017335;28;20050;-75
2023/11/09 06:26:24;;;;;;;27.95;26.10;;;;;;;9.85;100.00;101715.28;5013587;28;20458;-75
2023/11/09 06:28:52;;;;;;;27.00;25.20;;;;;;;10.18;100.00;101716.84;4999972;28;20522;-75
2023/11/09 06:31:21;;;;;;;29.08;27.30;;;;;;;9.74;100.00;101723.66;5007284;28;20046;-75
2023/11/09 06:33:51;;;;;;;28.35;26.65;;;;;;;9.99;100.00;101720.84;5003592;28;20511;-75
2023/11/09 06:36:18;;;;;;;27.45;25.65;;;;;;;9.46;100.00;101723.31;5017840;28;20057;-75
2023/11/09 06:38:45;;;;;;;26.20;24.50;;;;;;;9.15;100.00;101736.53;5018492;28;20154;-75
2023/11/09 06:41:14;;;;;;;26.10;24.50;;;;;;;10.05;100.00;101725.44;5017226;28;20053;-74
2023/11/09 06:43:42;;;;;;;25.65;23.95;;;;;;;9.77;100.00;101739.22;5021247;28;20049;-75
2023/11/09 06:46:08;;;;;;;23.50;22.00;;;;;;;10.14;100.00;101734.97;5019428;28;20049;-75
2023/11/09 06:48:35;;;;;;;21.33;19.95;;;;;;;10.68;100.00;101732.19;5018160;28;20050;-75
2023/11/09 06:51:03;;;;;;;21.73;20.42;;;;;;;10.57;100.00;101745.09;5013422;28;20041;-75
2023/11/09 06:53:30;;;;;;;23.65;22.17;;;;;;;10.46;100.00;101736.53;5025400;28;20056;-75
2023/11/09 06:55:57;;;;;;;23.38;22.08;;;;;;;11.82;100.00;101739.75;5014927;28;20081;-75
2023/11/09 06:58:25;;;;;;;23.85;22.45;;;;;;;10.78;100.00;101743.38;5011669;28;20057;-75
2023/11/09 07:00:55;;;;;;;22.77;21.38;;;;;;;10.25;100.00;101747.00;5012066;28;20053;-75
2023/11/09 07:03:22;;;;;;;21.55;20.15;;;;;;;10.33;100.00;101757.59;5012974;28;20054;-75
2023/11/09 07:05:50;;;;;;;25.20;23.70;;;;;;;11.96;100.00;101746.06;5016531;28;20064;-75
2023/11/09 07:08:17;;;;;;;35.13;28.48;;;;;;;12.69;100.00;101741.34;5013681;28;20107;-75
2023/11/09 07:10:43;;;;;;;30.60;28.80;;;;;;;11.99;100.00;101757.16;5009324;28;20056;-75
2023/11/09 07:13:11;;;;;;;32.65;30.85;;;;;;;9.76;100.00;101763.25;5011762;28;20145;-76
2023/11/09 07:15:39;;;;;;;41.20;39.00;;;;;;;11.34;100.00;101752.69;5021606;28;20507;-76
2023/11/09 07:18:07;;;;;;;47.30;44.80;;;;;;;11.84;100.00;101751.03;5010366;28;20107;-76
2023/11/09 07:20:35;;;;;;;49.17;46.67;;;;;;;11.00;100.00;101756.75;5020461;28;20447;-75
2023/11/09 07:23:06;;;;;;;42.35;40.03;;;;;;;10.54;100.00;101757.72;5005727;28;20108;-75
2023/11/09 07:25:34;;;;;;;48.03;45.42;;;;;;;9.89;100.00;101763.50;5019247;28;20128;-76
2023/11/09 07:28:03;;;;;;;53.70;50.92;;;;;;;9.59;100.00;101768.66;5022296;28;20434;-76
2023/11/09 07:30:31;;;;;;;51.45;48.65;;;;;;;9.92;100.00;101763.16;5014634;28;20049;-75
2023/11/09 07:33:00;;;;;;;48.42;45.83;;;;;;;11.50;100.00;101762.31;5010764;28;20054;-75
2023/11/09 07:35:27;;;;;;;46.03;43.53;;;;;;;11.73;100.00;101762.16;5009907;28;20518;-76
2023/11/09 07:37:55;;;;;;;47.10;44.60;;;;;;;11.68;100.00;101762.75;5017071;28;20061;-75
2023/11/09 07:40:22;;;;;;;49.15;46.45;;;;;;;12.77;100.00;101758.00;5019491;28;20063;-76
2023/11/09 07:42:49;;;;;;;42.38;39.97;;;;;;;13.70;100.00;101760.31;5022478;28;20092;-75
2023/11/09 07:45:16;;;;;;;49.88;47.03;;;;;;;10.68;100.00;101763.22;5007316;28;20046;-75
2023/11/09 07:47:45;;;;;;;49.10;46.40;;;;;;;12.86;100.00;101764.03;5012308;28;20442;-76
2023/11/09 07:50:16;;;;;;;50.08;47.38;;;;;;;12.01;100.00;101767.59;5010413;28;20073;-75
2023/11/09 07:52:43;;;;;;;45.85;43.35;;;;;;;12.92;100.00;101755.25;5020039;28;20088;-75
2023/11/09 07:55:10;;;;;;;42.10;39.80;;;;;;;12.15;100.00;101750.75;5021064;28;20108;-75
2023/11/09 07:57:39;;;;;;;36.67;34.58;;;;;;;12.31;100.00;101754.97;5018569;28;20251;-76
2023/11/09 08:00:10;;;;;;;39.25;37.08;;;;;;;14.32;100.00;101753.84;5011654;28;20462;-76
2023/11/09 08:02:38;;;;;;;41.93;39.63;;;;;;;13.31;100.00;101753.00;5019746;28;20136;-76
2023/11/09 08:05:06;;;;;;;39.33;37.13;;;;;;;13.21;100.00;101754.16;5022417;28;20577;-76
2023/11/09 08:07:35;;;;;;;19.08;17.77;;;;;;;12.45;100.00;101755.94;5021919;28;20430;-75
2023/11/09 08:10:02;;;;;;;20.33;19.02;;;;;;;11.51;100.00;101762.13;5023719;28;20576;-75
2023/11/09 08:12:29;;;;;;;20.63;19.33;;;;;;;13.60;100.00;101759.88;5008511;28;20140;-76
2023/11/09 08:14:56;;;;;;;23.35;21.85;;;;;;;13.44;100.00;101761.06;5015098;28;20144;-75
2023/11/09 08:17:23;;;;;;;24.75;23.30;;;;;;;14.26;100.00;101760.00;5014839;28;20288;-75
2023/11/09 08:19:51;;;;;;;23.30;21.90;;;;;;;14.09;100.00;101764.09;5018119;28;20053;-75
2023/11/09 08:22:18;;;;;;;25.60;24.10;;;;;;;12.85;100.00;101759.69;5015292;28;20088;-75
2023/11/09 08:24:47;;;;;;;23.35;21.95;;;;;;;13.80;100.00;101767.94;5018262;28;20581;-77
2023/11/09 08:27:14;;;;;;;24.15;22.67;;;;;;;13.60;100.00;101765.22;5023760;28;20061;-76
2023/11/09 08:29:41;;;;;;;26.42;24.83;;;;;;;13.87;100.00;101766.13;5020749;28;20132;-75
2023/11/09 08:32:09;;;;;;;25.30;23.80;;;;;;;13.28;100.00;101770.22;5014881;28;20431;-75
2023/11/09 08:34:37;;;;;;;31.23;29.55;;;;;;;14.63;100.00;101763.94;5008997;28;20095;-75
2023/11/09 08:37:06;;;;;;;36.22;34.33;;;;;;;15.80;100.00;101769.34;5011959;28;20414;-75
2023/11/09 08:39:33;;;;;;;33.00;31.10;;;;;;;12.76;100.00;101776.84;5015900;28;20108;-76
2023/11/09 08:42:03;;;;;;;38.60;36.65;;;;;;;14.33;100.00;101781.38;5022982;28;20165;-75
2023/11/09 08:44:30;;;;;;;41.72;39.08;;;;;;;15.78;100.00;101768.72;5015883;28;20433;-75
2023/11/09 08:46:57;;;;;;;43.00;40.85;;;;;;;15.04;100.00;101770.03;5016306;28;20113;-76
2023/11/09 08:49:24;;;;;;;37.88;35.97;;;;;;;13.15;100.00;101773.59;5014691;28;20046;-75
2023/11/09 08:51:50;;;;;;;39.08;37.08;;;;;;;13.17;100.00;101779.56;5012307;28;20570;-76
2023/11/09 08:54:17;;;;;;;41.60;39.50;;;;;;;13.27;100.00;101782.72;5018148;28;20317;-76
2023/11/09 08:56:46;;;;;;;36.92;35.03;;;;;;;16.46;100.00;101779.59;5016785;28;20095;-76
2023/11/09 08:59:14;;;;;;;48.15;45.75;;;;;;;13.08;100.00;101786.09;5015937;28;20041;-75
2023/11/09 09:01:41;;;;;;;42.47;40.10;;;;;;;17.49;100.00;101777.28;5015383;28;20084;-75
2023/11/09 09:04:08;;;;;;;40.45;38.05;;;;;;;18.25;100.00;101781.22;5020139;28;20052;-76
2023/11/09 09:06:35;;;;;;;36.25;33.95;;;;;;;16.58;100.00;101771.66;5024701;28;20467;-76
2023/11/09 09:09:04;;;;;;;38.08;35.75;;;;;;;16.43;100.00;101777.34;5023715;28;20049;-75
2023/11/09 09:11:31;;;;;;;40.20;37.70;;;;;;;17.90;100.00;101775.75;5021538;28;20049;-75
2023/11/09 09:13:59;;;;;;;37.95;35.55;;;;;;;14.43;100.00;101779.97;5021462;28;20080;-75
2023/11/09 09:16:28;;;;;;;33.60;31.70;;;;;;;15.62;100.00;101785.28;5015392;28;20054;-75
2023/11/09 09:18:55;;;;;;;22.80;21.25;;;;;;;15.21;100.00;101781.09;5020930;28;20049;-75
2023/11/09 09:21:23;;;;;;;20.92;19.52;;;;;;;14.89;100.00;101783.66;5022641;28;20049;-75
2023/11/09 09:23:51;;;;;;;22.20;20.80;;;;;;;16.52;100.00;101769.00;5020991;28;20053;-76
2023/11/09 09:26:18;;;;;;;22.45;21.05;;;;;;;13.59;100.00;101785.75;5021161;28;20054;-76
2023/11/09 09:28:47;;;;;;;22.05;20.55;;;;;;;15.61;100.00;101773.72;5017810;28;20433;-75
2023/11/09 09:31:14;;;;;;;22.80;21.35;;;;;;;13.44;100.00;101774.41;5021832;28;20042;-75
2023/11/09 09:33:43;;;;;;;21.15;19.65;;;;;;;13.56;100.00;101772.81;5019940;28;20077;-75
2023/11/09 09:36:11;;;;;;;21.80;20.30;;;;;;;14.84;100.00;101775.44;5014097;28;20042;-75
2023/11/09 09:38:42;;;;;;;21.55;20.10;;;;;;;15.99;100.00;101762.22;5016074;28;20064;-75
2023/11/09 09:41:11;;;;;;;21.25;19.75;;;;;;;16.90;100.00;101761.66;5017463;28;20052;-75
2023/11/09 09:43:42;;;;;;;22.27;20.67;;;;;;;17.11;100.00;101759.59;5017178;28;20513;-76
2023/11/09 09:46:10;;;;;;;21.23;19.63;;;;;;;17.94;100.00;101758.94;5018234;28;20042;-76
2023/11/09 09:48:37;;;;;;;21.83;20.27;;;;;;;16.72;100.00;101762.44;5020297;28;20084;-75
2023/11/09 09:51:09;;;;;;;22.42;20.85;;;;;;;16.55;100.00;101768.56;5016291;28;20108;-75
2023/11/09 09:53:38;;;;;;;21.02;19.42;;;;;;;17.74;100.00;101766.44;5016976;28;20668;-76
2023/11/09 09:56:07;;;;;;;24.98;23.08;;;;;;;17.77;100.00;101761.47;5016087;28;20053;-76
2023/11/09 09:58:36;;;;;;;26.30;24.35;;;;;;;19.10;100.00;101753.06;5017869;28;20396;-75
2023/11/09 10:01:04;;;;;;;26.90;24.83;;;;;;;20.79;99.95;101752.25;5017862;28;20408;-76
2023/11/09 10:03:34;;;;;;;27.42;25.23;;;;;;;17.63;100.00;101762.66;5019082;28;20057;-75
2023/11/09 10:06:01;;;;;;;28.30;26.20;;;;;;;18.62;100.00;101757.63;4981647;28;20470;-75
2023/11/09 10:08:29;;;;;;;26.63;24.63;;;;;;;18.39;100.00;101760.31;4964147;28;20434;-76
2023/11/09 10:10:58;;;;;;;24.42;22.52;;;;;;;16.95;100.00;101761.00;4979434;28;20522;-76
2023/11/09 10:13:30;;;;;;;23.00;21.30;;;;;;;16.23;100.00;101753.38;4978903;28;20086;-76
2023/11/09 10:15:58;;;;;;;21.48;19.88;;;;;;;19.25;100.00;101736.38;4978992;28;20050;-76
2023/11/09 10:18:26;;;;;;;21.15;19.55;;;;;;;14.86;100.00;101746.63;4976565;28;20050;-76
2023/11/09 10:20:55;;;;;;;21.38;19.77;;;;;;;18.83;100.00;101752.75;4980844;28;20046;-75
2023/11/09 10:23:22;;;;;;;21.92;20.33;;;;;;;16.26;100.00;101749.44;4979683;28;20054;-76
2023/11/09 10:25:51;;;;;;;27.13;25.10;;;;;;;16.54;100.00;101748.16;4976734;28;20053;-75
2023/11/09 10:28:20;;;;;;;23.55;21.65;;;;;;;18.29;100.00;101742.88;4980973;28;20621;-76
2023/11/09 10:30:48;;;;;;;24.40;22.50;;;;;;;18.59;100.00;101744.66;4984147;28;20152;-76
2023/11/09 10:33:17;;;;;;;22.63;20.83;;;;;;;16.22;100.00;101756.28;4983443;28;20086;-76
2023/11/09 10:35:45;;;;;;;24.27;22.38;;;;;;;19.29;100.00;101743.72;4972767;28;20051;-76
2023/11/09 10:38:14;;;;;;;21.88;20.17;;;;;;;18.10;100.00;101743.22;4979136;28;20054;-76
2023/11/09 10:40:42;;;;;;;23.67;21.42;;;;;;;18.52;100.00;101739.38;4976767;28;20061;-76
2023/11/09 10:43:14;;;;;;;22.52;20.83;;;;;;;17.89;100.00;101750.75;4978333;28;20419;-75
2023/11/09 10:45:43;;;;;;;23.02;21.33;;;;;;;18.12;100.00;101747.28;4946673;28;20050;-75
2023/11/09 10:48:11;;;;;;;21.50;19.90;;;;;;;17.99;100.00;101744.81;4994326;28;20058;-75
2023/11/09 10:50:44;;;;;;;20.67;19.08;;;;;;;17.10;100.00;101744.53;4999636;28;20050;-75
2023/11/09 10:53:15;;;;;;;20.50;18.90;;;;;;;19.77;100.00;101737.13;4995712;28;20245;-75
2023/11/09 10:55:43;;;;;;;22.98;21.38;;;;;;;18.18;100.00;101750.91;4995545;28;20076;-75
2023/11/09 10:58:13;;;;;;;24.80;23.10;;;;;;;16.99;100.00;101739.91;4994307;28;20050;-75
2023/11/09 11:00:43;;;;;;;22.83;21.13;;;;;;;18.33;100.00;101748.59;4996291;28;20053;-77
2023/11/09 11:03:16;;;;;;;25.27;23.35;;;;;;;18.97;100.00;101746.03;4990071;28;20050;-75
2023/11/09 11:05:47;;;;;;;22.23;20.63;;;;;;;18.54;100.00;101745.34;4994276;28;20069;-76
2023/11/09 11:08:17;;;;;;;22.80;21.10;;;;;;;19.85;100.00;101746.72;4997906;28;20069;-75
2023/11/09 11:10:51;;;;;;;23.60;21.90;;;;;;;18.21;100.00;101753.16;4993587;28;20060;-75
2023/11/09 11:13:20;;;;;;;26.85;24.73;;;;;;;17.67;100.00;101754.94;4993124;28;20062;-76
2023/11/09 11:16:07;;;;;;;26.88;24.88;;;;;;;17.53;100.00;101752.47;4996868;28;20057;-75